sensor_id;sensor_type;location;lat;lon;timestamp;P1;durP1;ratioP1;P2;durP2;ratioP2
59239;SDS011;45010;53.640;10.578;2023-02-03T00:00:58;1.25;;;0.60;;
59239;SDS011;45010;53.640;10.578;2023-02-03T00:03:59;1.08;;;0.50;;
59239;SDS011;45010;53.640;10.578;2023-02-03T00:06:59;1.40;;;0.52;;
59239;SDS011;45010;53.640;10.578;2023-02-03T00:09:59;1.88;;;0.60;;
59239;SDS011;45010;53.640;10.578;2023-02-03T00:13:00;1.55;;;0.47;;
59239;SDS011;45010;53.640;10.578;2023-02-03T00:16:00;1.45;;;0.55;;
59239;SDS011;45010;53.640;10.578;2023-02-03T00:19:01;1.35;;;0.50;;
59239;SDS011;45010;53.640;10.578;2023-02-03T00:22:02;0.90;;;0.60;;
59239;SDS011;45010;53.640;10.578;2023-02-03T00:25:02;1.45;;;0.77;;
59239;SDS011;45010;53.640;10.578;2023-02-03T00:28:03;0.40;;;0.40;;
59239;SDS011;45010;53.640;10.578;2023-02-03T00:31:04;0.85;;;0.40;;
59239;SDS011;45010;53.640;10.578;2023-02-03T00:34:04;1.23;;;0.40;;
59239;SDS011;45010;53.640;10.578;2023-02-03T00:37:05;0.50;;;0.40;;
59239;SDS011;45010;53.640;10.578;2023-02-03T00:40:05;1.10;;;0.55;;
59239;SDS011;45010;53.640;10.578;2023-02-03T00:43:06;0.88;;;0.50;;
59239;SDS011;45010;53.640;10.578;2023-02-03T00:46:06;0.60;;;0.40;;
59239;SDS011;45010;53.640;10.578;2023-02-03T00:49:07;0.52;;;0.40;;
59239;SDS011;45010;53.640;10.578;2023-02-03T00:52:07;0.85;;;0.40;;
59239;SDS011;45010;53.640;10.578;2023-02-03T00:55:07;0.73;;;0.50;;
59239;SDS011;45010;53.640;10.578;2023-02-03T00:58:08;1.17;;;0.68;;
59239;SDS011;45010;53.640;10.578;2023-02-03T01:01:09;0.50;;;0.43;;
59239;SDS011;45010;53.640;10.578;2023-02-03T01:04:09;1.42;;;0.60;;
59239;SDS011;45010;53.640;10.578;2023-02-03T01:07:10;1.80;;;0.40;;
59239;SDS011;45010;53.640;10.578;2023-02-03T01:10:10;1.02;;;0.50;;
59239;SDS011;45010;53.640;10.578;2023-02-03T01:13:10;1.63;;;0.68;;
59239;SDS011;45010;53.640;10.578;2023-02-03T01:16:12;1.33;;;0.47;;
59239;SDS011;45010;53.640;10.578;2023-02-03T01:19:17;1.25;;;0.43;;
59239;SDS011;45010;53.640;10.578;2023-02-03T01:22:18;0.80;;;0.40;;
59239;SDS011;45010;53.640;10.578;2023-02-03T01:25:18;1.45;;;0.60;;
59239;SDS011;45010;53.640;10.578;2023-02-03T01:28:19;0.60;;;0.30;;
59239;SDS011;45010;53.640;10.578;2023-02-03T01:31:26;0.57;;;0.45;;
59239;SDS011;45010;53.640;10.578;2023-02-03T01:34:28;2.10;;;0.50;;
59239;SDS011;45010;53.640;10.578;2023-02-03T01:37:28;1.17;;;0.63;;
59239;SDS011;45010;53.640;10.578;2023-02-03T01:40:29;0.63;;;0.43;;
59239;SDS011;45010;53.640;10.578;2023-02-03T01:43:37;0.47;;;0.30;;
59239;SDS011;45010;53.640;10.578;2023-02-03T01:46:41;0.70;;;0.50;;
59239;SDS011;45010;53.640;10.578;2023-02-03T01:49:50;0.73;;;0.50;;
59239;SDS011;45010;53.640;10.578;2023-02-03T01:52:57;0.30;;;0.30;;
59239;SDS011;45010;53.640;10.578;2023-02-03T01:56:00;0.55;;;0.40;;
59239;SDS011;45010;53.640;10.578;2023-02-03T01:59:04;0.60;;;0.40;;
59239;SDS011;45010;53.640;10.578;2023-02-03T02:02:05;0.45;;;0.40;;
59239;SDS011;45010;53.640;10.578;2023-02-03T02:05:09;0.40;;;0.30;;
59239;SDS011;45010;53.640;10.578;2023-02-03T02:08:15;0.73;;;0.43;;
59239;SDS011;45010;53.640;10.578;2023-02-03T02:11:17;0.63;;;0.30;;
59239;SDS011;45010;53.640;10.578;2023-02-03T02:14:20;0.80;;;0.50;;
59239;SDS011;45010;53.640;10.578;2023-02-03T02:27:58;2.03;;;0.40;;
59239;SDS011;45010;53.640;10.578;2023-02-03T02:31:34;0.38;;;0.20;;
59239;SDS011;45010;53.640;10.578;2023-02-03T02:34:49;1.20;;;0.43;;
59239;SDS011;45010;53.640;10.578;2023-02-03T02:38:03;1.17;;;0.45;;
59239;SDS011;45010;53.640;10.578;2023-02-03T02:44:43;1.27;;;0.40;;
59239;SDS011;45010;53.640;10.578;2023-02-03T02:47:48;0.68;;;0.32;;
59239;SDS011;45010;53.640;10.578;2023-02-03T02:50:51;0.95;;;0.40;;
59239;SDS011;45010;53.640;10.578;2023-02-03T02:53:55;0.43;;;0.30;;
59239;SDS011;45010;53.640;10.578;2023-02-03T02:56:59;0.45;;;0.20;;
59239;SDS011;45010;53.640;10.578;2023-02-03T03:00:04;1.27;;;0.22;;
59239;SDS011;45010;53.640;10.578;2023-02-03T03:03:13;0.20;;;0.20;;
59239;SDS011;45010;53.640;10.578;2023-02-03T03:06:25;0.60;;;0.30;;
59239;SDS011;45010;53.640;10.578;2023-02-03T03:09:38;0.28;;;0.25;;
59239;SDS011;45010;53.640;10.578;2023-02-03T03:12:44;0.70;;;0.50;;
59239;SDS011;45010;53.640;10.578;2023-02-03T03:15:49;0.57;;;0.30;;
59239;SDS011;45010;53.640;10.578;2023-02-03T03:19:00;0.60;;;0.25;;
59239;SDS011;45010;53.640;10.578;2023-02-03T03:22:06;1.10;;;0.40;;
59239;SDS011;45010;53.640;10.578;2023-02-03T03:25:11;0.50;;;0.30;;
59239;SDS011;45010;53.640;10.578;2023-02-03T03:28:17;1.83;;;0.40;;
59239;SDS011;45010;53.640;10.578;2023-02-03T03:31:25;0.40;;;0.20;;
59239;SDS011;45010;53.640;10.578;2023-02-03T03:34:26;0.40;;;0.30;;
59239;SDS011;45010;53.640;10.578;2023-02-03T03:37:34;0.45;;;0.30;;
59239;SDS011;45010;53.640;10.578;2023-02-03T03:40:40;0.38;;;0.30;;
59239;SDS011;45010;53.640;10.578;2023-02-03T03:43:43;0.55;;;0.25;;
59239;SDS011;45010;53.640;10.578;2023-02-03T03:46:50;0.95;;;0.40;;
59239;SDS011;45010;53.640;10.578;2023-02-03T03:49:57;0.75;;;0.30;;
59239;SDS011;45010;53.640;10.578;2023-02-03T03:53:00;1.02;;;0.43;;
59239;SDS011;45010;53.640;10.578;2023-02-03T03:56:03;0.82;;;0.38;;
59239;SDS011;45010;53.640;10.578;2023-02-03T03:59:07;0.68;;;0.32;;
59239;SDS011;45010;53.640;10.578;2023-02-03T04:02:11;0.68;;;0.40;;
59239;SDS011;45010;53.640;10.578;2023-02-03T04:05:13;0.68;;;0.30;;
59239;SDS011;45010;53.640;10.578;2023-02-03T04:08:13;0.70;;;0.30;;
59239;SDS011;45010;53.640;10.578;2023-02-03T04:11:13;0.75;;;0.38;;
59239;SDS011;45010;53.640;10.578;2023-02-03T04:14:34;1.00;;;0.30;;
59239;SDS011;45010;53.640;10.578;2023-02-03T04:17:39;0.55;;;0.30;;
59239;SDS011;45010;53.640;10.578;2023-02-03T04:20:40;0.75;;;0.28;;
59239;SDS011;45010;53.640;10.578;2023-02-03T04:23:40;0.38;;;0.35;;
59239;SDS011;45010;53.640;10.578;2023-02-03T04:26:41;1.65;;;0.40;;
59239;SDS011;45010;53.640;10.578;2023-02-03T04:29:41;0.22;;;0.20;;
59239;SDS011;45010;53.640;10.578;2023-02-03T04:32:41;0.40;;;0.35;;
59239;SDS011;45010;53.640;10.578;2023-02-03T04:35:42;0.82;;;0.32;;
59239;SDS011;45010;53.640;10.578;2023-02-03T04:38:42;0.65;;;0.30;;
59239;SDS011;45010;53.640;10.578;2023-02-03T04:41:42;0.40;;;0.35;;
59239;SDS011;45010;53.640;10.578;2023-02-03T04:44:43;0.65;;;0.25;;
59239;SDS011;45010;53.640;10.578;2023-02-03T04:47:43;0.50;;;0.30;;
59239;SDS011;45010;53.640;10.578;2023-02-03T04:50:44;0.50;;;0.30;;
59239;SDS011;45010;53.640;10.578;2023-02-03T04:53:44;0.63;;;0.30;;
59239;SDS011;45010;53.640;10.578;2023-02-03T04:56:44;0.88;;;0.30;;
59239;SDS011;45010;53.640;10.578;2023-02-03T04:59:45;0.68;;;0.30;;
59239;SDS011;45010;53.640;10.578;2023-02-03T05:02:45;0.70;;;0.35;;
59239;SDS011;45010;53.640;10.578;2023-02-03T05:05:45;1.00;;;0.40;;
59239;SDS011;45010;53.640;10.578;2023-02-03T05:08:46;1.17;;;0.30;;
59239;SDS011;45010;53.640;10.578;2023-02-03T05:11:46;0.60;;;0.38;;
59239;SDS011;45010;53.640;10.578;2023-02-03T05:14:46;0.30;;;0.30;;
59239;SDS011;45010;53.640;10.578;2023-02-03T05:17:47;0.50;;;0.20;;
59239;SDS011;45010;53.640;10.578;2023-02-03T05:20:47;0.73;;;0.32;;
59239;SDS011;45010;53.640;10.578;2023-02-03T05:23:48;0.35;;;0.20;;
59239;SDS011;45010;53.640;10.578;2023-02-03T05:26:48;0.60;;;0.30;;
59239;SDS011;45010;53.640;10.578;2023-02-03T05:29:48;0.52;;;0.30;;
59239;SDS011;45010;53.640;10.578;2023-02-03T05:32:49;1.90;;;0.30;;
59239;SDS011;45010;53.640;10.578;2023-02-03T05:35:49;0.65;;;0.30;;
59239;SDS011;45010;53.640;10.578;2023-02-03T05:38:49;0.50;;;0.22;;
59239;SDS011;45010;53.640;10.578;2023-02-03T05:41:50;0.75;;;0.20;;
59239;SDS011;45010;53.640;10.578;2023-02-03T05:44:52;0.52;;;0.20;;
59239;SDS011;45010;53.640;10.578;2023-02-03T05:47:53;0.43;;;0.22;;
59239;SDS011;45010;53.640;10.578;2023-02-03T05:50:53;0.45;;;0.17;;
59239;SDS011;45010;53.640;10.578;2023-02-03T05:53:54;0.32;;;0.20;;
59239;SDS011;45010;53.640;10.578;2023-02-03T05:56:54;0.20;;;0.20;;
59239;SDS011;45010;53.640;10.578;2023-02-03T05:59:54;0.35;;;0.20;;
59239;SDS011;45010;53.640;10.578;2023-02-03T06:02:56;0.63;;;0.30;;
59239;SDS011;45010;53.640;10.578;2023-02-03T06:05:58;0.43;;;0.20;;
59239;SDS011;45010;53.640;10.578;2023-02-03T06:09:03;0.30;;;0.20;;
59239;SDS011;45010;53.640;10.578;2023-02-03T06:12:05;0.45;;;0.40;;
59239;SDS011;45010;53.640;10.578;2023-02-03T06:15:05;0.40;;;0.30;;
59239;SDS011;45010;53.640;10.578;2023-02-03T06:18:06;0.45;;;0.22;;
59239;SDS011;45010;53.640;10.578;2023-02-03T06:21:07;1.25;;;0.20;;
59239;SDS011;45010;53.640;10.578;2023-02-03T06:24:08;1.30;;;0.30;;
59239;SDS011;45010;53.640;10.578;2023-02-03T06:27:09;0.70;;;0.30;;
59239;SDS011;45010;53.640;10.578;2023-02-03T06:30:09;0.60;;;0.28;;
59239;SDS011;45010;53.640;10.578;2023-02-03T06:33:10;1.58;;;0.20;;
59239;SDS011;45010;53.640;10.578;2023-02-03T06:36:10;1.27;;;0.30;;
59239;SDS011;45010;53.640;10.578;2023-02-03T06:39:11;1.95;;;0.20;;
59239;SDS011;45010;53.640;10.578;2023-02-03T06:42:11;0.47;;;0.20;;
59239;SDS011;45010;53.640;10.578;2023-02-03T06:45:12;0.30;;;0.20;;
59239;SDS011;45010;53.640;10.578;2023-02-03T06:48:13;0.28;;;0.20;;
59239;SDS011;45010;53.640;10.578;2023-02-03T06:51:13;1.05;;;0.40;;
59239;SDS011;45010;53.640;10.578;2023-02-03T06:54:13;0.40;;;0.20;;
59239;SDS011;45010;53.640;10.578;2023-02-03T06:57:14;0.73;;;0.30;;
59239;SDS011;45010;53.640;10.578;2023-02-03T07:00:15;1.38;;;0.45;;
59239;SDS011;45010;53.640;10.578;2023-02-03T07:03:16;1.15;;;0.65;;
59239;SDS011;45010;53.640;10.578;2023-02-03T07:06:17;1.30;;;0.68;;
59239;SDS011;45010;53.640;10.578;2023-02-03T07:09:17;1.83;;;0.70;;
59239;SDS011;45010;53.640;10.578;2023-02-03T07:12:19;1.50;;;0.77;;
59239;SDS011;45010;53.640;10.578;2023-02-03T07:15:19;2.75;;;0.80;;
59239;SDS011;45010;53.640;10.578;2023-02-03T07:18:19;0.85;;;0.68;;
59239;SDS011;45010;53.640;10.578;2023-02-03T07:21:23;0.90;;;0.60;;
59239;SDS011;45010;53.640;10.578;2023-02-03T07:24:23;1.63;;;0.63;;
59239;SDS011;45010;53.640;10.578;2023-02-03T07:27:24;1.83;;;0.68;;
59239;SDS011;45010;53.640;10.578;2023-02-03T07:30:24;0.95;;;0.70;;
59239;SDS011;45010;53.640;10.578;2023-02-03T07:33:24;1.27;;;0.77;;
59239;SDS011;45010;53.640;10.578;2023-02-03T07:36:25;3.45;;;0.70;;
59239;SDS011;45010;53.640;10.578;2023-02-03T07:39:27;0.85;;;0.57;;
59239;SDS011;45010;53.640;10.578;2023-02-03T07:42:28;1.80;;;0.73;;
59239;SDS011;45010;53.640;10.578;2023-02-03T07:45:28;1.00;;;0.60;;
59239;SDS011;45010;53.640;10.578;2023-02-03T07:48:28;0.88;;;0.50;;
59239;SDS011;45010;53.640;10.578;2023-02-03T07:51:29;2.33;;;0.90;;
59239;SDS011;45010;53.640;10.578;2023-02-03T07:54:29;2.25;;;0.70;;
59239;SDS011;45010;53.640;10.578;2023-02-03T07:57:30;1.35;;;0.75;;
59239;SDS011;45010;53.640;10.578;2023-02-03T08:00:30;6.95;;;6.35;;
59239;SDS011;45010;53.640;10.578;2023-02-03T08:03:30;5.47;;;5.10;;
59239;SDS011;45010;53.640;10.578;2023-02-03T08:06:31;4.00;;;3.70;;
59239;SDS011;45010;53.640;10.578;2023-02-03T08:09:31;4.03;;;2.95;;
59239;SDS011;45010;53.640;10.578;2023-02-03T08:12:32;2.88;;;2.63;;
59239;SDS011;45010;53.640;10.578;2023-02-03T08:15:33;2.47;;;2.28;;
59239;SDS011;45010;53.640;10.578;2023-02-03T08:18:33;2.33;;;2.13;;
59239;SDS011;45010;53.640;10.578;2023-02-03T08:21:33;1.90;;;1.80;;
59239;SDS011;45010;53.640;10.578;2023-02-03T08:24:34;3.83;;;1.88;;
59239;SDS011;45010;53.640;10.578;2023-02-03T08:27:35;4.93;;;1.90;;
59239;SDS011;45010;53.640;10.578;2023-02-03T08:30:35;2.45;;;1.77;;
59239;SDS011;45010;53.640;10.578;2023-02-03T08:33:36;2.72;;;1.48;;
59239;SDS011;45010;53.640;10.578;2023-02-03T08:36:36;2.70;;;1.70;;
59239;SDS011;45010;53.640;10.578;2023-02-03T08:39:39;4.78;;;1.70;;
59239;SDS011;45010;53.640;10.578;2023-02-03T08:42:39;1.77;;;1.42;;
59239;SDS011;45010;53.640;10.578;2023-02-03T08:45:39;5.38;;;1.50;;
59239;SDS011;45010;53.640;10.578;2023-02-03T08:48:41;2.30;;;1.15;;
59239;SDS011;45010;53.640;10.578;2023-02-03T08:51:42;2.22;;;1.17;;
59239;SDS011;45010;53.640;10.578;2023-02-03T08:54:43;3.03;;;1.30;;
59239;SDS011;45010;53.640;10.578;2023-02-03T08:57:43;3.20;;;1.40;;
59239;SDS011;45010;53.640;10.578;2023-02-03T09:00:44;2.30;;;1.13;;
59239;SDS011;45010;53.640;10.578;2023-02-03T09:03:47;2.33;;;1.20;;
59239;SDS011;45010;53.640;10.578;2023-02-03T09:06:48;2.58;;;1.33;;
59239;SDS011;45010;53.640;10.578;2023-02-03T09:09:48;1.88;;;0.93;;
59239;SDS011;45010;53.640;10.578;2023-02-03T09:12:48;2.05;;;1.13;;
59239;SDS011;45010;53.640;10.578;2023-02-03T09:15:49;2.78;;;1.50;;
59239;SDS011;45010;53.640;10.578;2023-02-03T09:18:49;4.78;;;1.50;;
59239;SDS011;45010;53.640;10.578;2023-02-03T09:21:50;3.63;;;1.33;;
59239;SDS011;45010;53.640;10.578;2023-02-03T09:24:50;3.22;;;1.40;;
59239;SDS011;45010;53.640;10.578;2023-02-03T09:27:50;3.83;;;1.20;;
59239;SDS011;45010;53.640;10.578;2023-02-03T09:30:51;2.67;;;1.10;;
59239;SDS011;45010;53.640;10.578;2023-02-03T09:33:51;2.15;;;1.58;;
59239;SDS011;45010;53.640;10.578;2023-02-03T09:36:51;4.32;;;1.60;;
59239;SDS011;45010;53.640;10.578;2023-02-03T09:39:52;2.58;;;1.08;;
59239;SDS011;45010;53.640;10.578;2023-02-03T09:43:19;3.97;;;1.30;;
59239;SDS011;45010;53.640;10.578;2023-02-03T09:46:24;2.75;;;1.10;;
59239;SDS011;45010;53.640;10.578;2023-02-03T09:49:30;6.32;;;1.75;;
59239;SDS011;45010;53.640;10.578;2023-02-03T09:52:40;8.02;;;2.00;;
59239;SDS011;45010;53.640;10.578;2023-02-03T09:55:43;7.55;;;2.75;;
59239;SDS011;45010;53.640;10.578;2023-02-03T09:58:45;6.93;;;2.25;;
59239;SDS011;45010;53.640;10.578;2023-02-03T10:04:58;6.30;;;2.00;;
59239;SDS011;45010;53.640;10.578;2023-02-03T10:08:21;6.15;;;1.60;;
59239;SDS011;45010;53.640;10.578;2023-02-03T10:18:20;6.05;;;2.08;;
59239;SDS011;45010;53.640;10.578;2023-02-03T10:24:38;4.68;;;1.77;;
59239;SDS011;45010;53.640;10.578;2023-02-03T10:27:42;6.30;;;1.98;;
59239;SDS011;45010;53.640;10.578;2023-02-03T10:30:44;6.95;;;2.20;;
59239;SDS011;45010;53.640;10.578;2023-02-03T10:34:08;6.53;;;1.83;;
59239;SDS011;45010;53.640;10.578;2023-02-03T10:37:21;6.40;;;2.30;;
59239;SDS011;45010;53.640;10.578;2023-02-03T10:40:29;8.23;;;2.60;;
59239;SDS011;45010;53.640;10.578;2023-02-03T10:43:30;6.15;;;1.90;;
59239;SDS011;45010;53.640;10.578;2023-02-03T10:46:47;6.70;;;1.80;;
59239;SDS011;45010;53.640;10.578;2023-02-03T10:49:51;5.63;;;1.90;;
59239;SDS011;45010;53.640;10.578;2023-02-03T10:52:53;7.57;;;2.28;;
59239;SDS011;45010;53.640;10.578;2023-02-03T10:56:34;8.75;;;2.00;;
59239;SDS011;45010;53.640;10.578;2023-02-03T10:59:40;5.65;;;2.00;;
59239;SDS011;45010;53.640;10.578;2023-02-03T11:02:42;5.80;;;2.17;;
59239;SDS011;45010;53.640;10.578;2023-02-03T11:05:42;8.02;;;2.35;;
59239;SDS011;45010;53.640;10.578;2023-02-03T11:08:44;5.45;;;2.28;;
59239;SDS011;45010;53.640;10.578;2023-02-03T11:11:46;6.28;;;2.30;;
59239;SDS011;45010;53.640;10.578;2023-02-03T11:14:48;8.23;;;2.53;;
59239;SDS011;45010;53.640;10.578;2023-02-03T11:17:52;6.20;;;2.17;;
59239;SDS011;45010;53.640;10.578;2023-02-03T11:20:52;6.13;;;2.53;;
59239;SDS011;45010;53.640;10.578;2023-02-03T11:30:10;7.72;;;2.53;;
59239;SDS011;45010;53.640;10.578;2023-02-03T11:33:17;7.57;;;2.03;;
59239;SDS011;45010;53.640;10.578;2023-02-03T11:36:19;7.70;;;2.70;;
59239;SDS011;45010;53.640;10.578;2023-02-03T11:39:23;9.07;;;2.42;;
59239;SDS011;45010;53.640;10.578;2023-02-03T11:42:28;6.85;;;2.03;;
59239;SDS011;45010;53.640;10.578;2023-02-03T11:45:36;6.70;;;2.13;;
59239;SDS011;45010;53.640;10.578;2023-02-03T11:48:45;7.10;;;2.65;;
59239;SDS011;45010;53.640;10.578;2023-02-03T11:52:20;8.68;;;2.40;;
59239;SDS011;45010;53.640;10.578;2023-02-03T11:55:32;5.75;;;2.40;;
59239;SDS011;45010;53.640;10.578;2023-02-03T11:58:39;6.30;;;2.17;;
59239;SDS011;45010;53.640;10.578;2023-02-03T12:01:57;7.93;;;2.55;;
59239;SDS011;45010;53.640;10.578;2023-02-03T12:09:02;7.10;;;2.47;;
59239;SDS011;45010;53.640;10.578;2023-02-03T12:15:42;7.43;;;2.20;;
59239;SDS011;45010;53.640;10.578;2023-02-03T12:18:57;8.18;;;3.17;;
59239;SDS011;45010;53.640;10.578;2023-02-03T12:22:14;6.70;;;2.13;;
59239;SDS011;45010;53.640;10.578;2023-02-03T12:28:42;6.63;;;2.38;;
59239;SDS011;45010;53.640;10.578;2023-02-03T12:35:24;5.80;;;2.35;;
59239;SDS011;45010;53.640;10.578;2023-02-03T12:38:39;6.57;;;2.20;;
59239;SDS011;45010;53.640;10.578;2023-02-03T12:42:09;6.78;;;2.30;;
59239;SDS011;45010;53.640;10.578;2023-02-03T12:45:18;11.27;;;2.65;;
59239;SDS011;45010;53.640;10.578;2023-02-03T12:48:25;8.18;;;2.47;;
59239;SDS011;45010;53.640;10.578;2023-02-03T12:51:39;8.48;;;3.03;;
59239;SDS011;45010;53.640;10.578;2023-02-03T12:54:42;5.82;;;2.63;;
59239;SDS011;45010;53.640;10.578;2023-02-03T12:57:47;7.70;;;2.22;;
59239;SDS011;45010;53.640;10.578;2023-02-03T13:00:56;6.25;;;1.90;;
59239;SDS011;45010;53.640;10.578;2023-02-03T13:04:00;8.52;;;2.65;;
59239;SDS011;45010;53.640;10.578;2023-02-03T13:10:18;9.55;;;2.67;;
59239;SDS011;45010;53.640;10.578;2023-02-03T13:13:28;10.48;;;3.78;;
59239;SDS011;45010;53.640;10.578;2023-02-03T13:16:35;8.93;;;2.65;;
59239;SDS011;45010;53.640;10.578;2023-02-03T13:19:42;8.40;;;2.55;;
59239;SDS011;45010;53.640;10.578;2023-02-03T13:22:47;6.80;;;2.47;;
59239;SDS011;45010;53.640;10.578;2023-02-03T13:26:06;8.13;;;2.58;;
59239;SDS011;45010;53.640;10.578;2023-02-03T13:32:55;8.13;;;2.47;;
59239;SDS011;45010;53.640;10.578;2023-02-03T13:42:58;7.22;;;2.30;;
59239;SDS011;45010;53.640;10.578;2023-02-03T13:46:08;8.63;;;3.33;;
59239;SDS011;45010;53.640;10.578;2023-02-03T13:49:32;8.40;;;2.42;;
59239;SDS011;45010;53.640;10.578;2023-02-03T13:52:42;6.95;;;2.20;;
59239;SDS011;45010;53.640;10.578;2023-02-03T13:55:59;6.20;;;2.50;;
59239;SDS011;45010;53.640;10.578;2023-02-03T13:59:03;7.90;;;2.72;;
59239;SDS011;45010;53.640;10.578;2023-02-03T14:05:39;7.47;;;2.83;;
59239;SDS011;45010;53.640;10.578;2023-02-03T14:08:41;6.93;;;2.25;;
59239;SDS011;45010;53.640;10.578;2023-02-03T14:11:51;6.97;;;2.55;;
59239;SDS011;45010;53.640;10.578;2023-02-03T14:18:32;8.95;;;3.10;;
59239;SDS011;45010;53.640;10.578;2023-02-03T14:21:53;7.53;;;2.40;;
59239;SDS011;45010;53.640;10.578;2023-02-03T14:24:54;8.40;;;2.45;;
59239;SDS011;45010;53.640;10.578;2023-02-03T14:27:58;7.13;;;2.08;;
59239;SDS011;45010;53.640;10.578;2023-02-03T14:31:09;6.65;;;2.42;;
59239;SDS011;45010;53.640;10.578;2023-02-03T14:34:12;6.18;;;2.58;;
59239;SDS011;45010;53.640;10.578;2023-02-03T14:40:31;5.88;;;2.42;;
59239;SDS011;45010;53.640;10.578;2023-02-03T14:43:43;7.88;;;2.72;;
59239;SDS011;45010;53.640;10.578;2023-02-03T14:46:57;7.05;;;2.50;;
59239;SDS011;45010;53.640;10.578;2023-02-03T14:50:16;5.10;;;2.03;;
59239;SDS011;45010;53.640;10.578;2023-02-03T14:53:33;6.20;;;2.33;;
59239;SDS011;45010;53.640;10.578;2023-02-03T14:57:02;6.72;;;2.47;;
59239;SDS011;45010;53.640;10.578;2023-02-03T15:03:23;9.02;;;2.70;;
59239;SDS011;45010;53.640;10.578;2023-02-03T15:09:53;8.77;;;2.95;;
59239;SDS011;45010;53.640;10.578;2023-02-03T15:12:56;8.80;;;2.53;;
59239;SDS011;45010;53.640;10.578;2023-02-03T15:15:58;7.82;;;2.75;;
59239;SDS011;45010;53.640;10.578;2023-02-03T15:19:00;5.85;;;2.20;;
59239;SDS011;45010;53.640;10.578;2023-02-03T15:22:20;7.72;;;2.20;;
59239;SDS011;45010;53.640;10.578;2023-02-03T15:25:22;6.85;;;2.50;;
59239;SDS011;45010;53.640;10.578;2023-02-03T15:28:25;11.90;;;3.05;;
59239;SDS011;45010;53.640;10.578;2023-02-03T15:31:37;9.23;;;2.83;;
59239;SDS011;45010;53.640;10.578;2023-02-03T15:34:46;8.52;;;2.78;;
59239;SDS011;45010;53.640;10.578;2023-02-03T15:37:49;7.22;;;2.50;;
59239;SDS011;45010;53.640;10.578;2023-02-03T15:40:54;9.02;;;3.30;;
59239;SDS011;45010;53.640;10.578;2023-02-03T15:43:59;7.53;;;2.38;;
59239;SDS011;45010;53.640;10.578;2023-02-03T15:47:15;7.00;;;2.20;;
59239;SDS011;45010;53.640;10.578;2023-02-03T15:50:24;7.30;;;2.45;;
59239;SDS011;45010;53.640;10.578;2023-02-03T15:53:32;8.50;;;2.47;;
59239;SDS011;45010;53.640;10.578;2023-02-03T15:56:39;5.82;;;2.33;;
59239;SDS011;45010;53.640;10.578;2023-02-03T15:59:45;8.65;;;3.03;;
59239;SDS011;45010;53.640;10.578;2023-02-03T16:02:52;9.68;;;2.58;;
59239;SDS011;45010;53.640;10.578;2023-02-03T16:05:53;6.38;;;2.35;;
59239;SDS011;45010;53.640;10.578;2023-02-03T16:08:53;8.25;;;2.50;;
59239;SDS011;45010;53.640;10.578;2023-02-03T16:12:01;9.93;;;2.75;;
59239;SDS011;45010;53.640;10.578;2023-02-03T16:15:05;7.63;;;2.20;;
59239;SDS011;45010;53.640;10.578;2023-02-03T16:18:09;9.75;;;2.50;;
59239;SDS011;45010;53.640;10.578;2023-02-03T16:21:27;9.10;;;2.25;;
59239;SDS011;45010;53.640;10.578;2023-02-03T16:24:37;8.13;;;2.25;;
59239;SDS011;45010;53.640;10.578;2023-02-03T16:27:54;8.27;;;2.65;;
59239;SDS011;45010;53.640;10.578;2023-02-03T16:34:34;11.45;;;2.70;;
59239;SDS011;45010;53.640;10.578;2023-02-03T16:38:06;8.60;;;2.85;;
59239;SDS011;45010;53.640;10.578;2023-02-03T16:41:32;7.22;;;2.67;;
59239;SDS011;45010;53.640;10.578;2023-02-03T16:44:51;13.25;;;2.97;;
59239;SDS011;45010;53.640;10.578;2023-02-03T16:48:11;7.88;;;2.58;;
59239;SDS011;45010;53.640;10.578;2023-02-03T16:51:36;9.40;;;3.22;;
59239;SDS011;45010;53.640;10.578;2023-02-03T16:54:39;7.93;;;3.13;;
59239;SDS011;45010;53.640;10.578;2023-02-03T16:57:39;9.27;;;2.95;;
59239;SDS011;45010;53.640;10.578;2023-02-03T17:00:40;10.95;;;3.30;;
59239;SDS011;45010;53.640;10.578;2023-02-03T17:03:42;13.38;;;4.13;;
59239;SDS011;45010;53.640;10.578;2023-02-03T17:06:43;13.65;;;4.40;;
59239;SDS011;45010;53.640;10.578;2023-02-03T17:09:43;16.20;;;4.75;;
59239;SDS011;45010;53.640;10.578;2023-02-03T17:12:44;13.30;;;4.95;;
59239;SDS011;45010;53.640;10.578;2023-02-03T17:15:45;11.50;;;4.60;;
59239;SDS011;45010;53.640;10.578;2023-02-03T17:18:47;11.40;;;4.63;;
59239;SDS011;45010;53.640;10.578;2023-02-03T17:21:47;11.40;;;3.90;;
59239;SDS011;45010;53.640;10.578;2023-02-03T17:24:49;12.13;;;3.70;;
59239;SDS011;45010;53.640;10.578;2023-02-03T17:27:49;14.05;;;4.15;;
59239;SDS011;45010;53.640;10.578;2023-02-03T17:31:00;11.57;;;4.28;;
59239;SDS011;45010;53.640;10.578;2023-02-03T17:34:01;9.07;;;3.63;;
59239;SDS011;45010;53.640;10.578;2023-02-03T17:37:02;11.68;;;4.40;;
59239;SDS011;45010;53.640;10.578;2023-02-03T17:40:02;11.60;;;5.07;;
59239;SDS011;45010;53.640;10.578;2023-02-03T17:43:03;11.27;;;4.05;;
59239;SDS011;45010;53.640;10.578;2023-02-03T17:46:04;11.45;;;4.32;;
59239;SDS011;45010;53.640;10.578;2023-02-03T17:49:04;13.48;;;3.78;;
59239;SDS011;45010;53.640;10.578;2023-02-03T17:52:05;8.10;;;3.45;;
59239;SDS011;45010;53.640;10.578;2023-02-03T17:55:05;9.32;;;3.65;;
59239;SDS011;45010;53.640;10.578;2023-02-03T17:58:06;9.23;;;3.92;;
59239;SDS011;45010;53.640;10.578;2023-02-03T18:01:08;8.63;;;3.38;;
59239;SDS011;45010;53.640;10.578;2023-02-03T18:04:08;10.57;;;3.30;;
59239;SDS011;45010;53.640;10.578;2023-02-03T18:07:08;12.95;;;3.83;;
59239;SDS011;45010;53.640;10.578;2023-02-03T18:10:09;8.40;;;3.17;;
59239;SDS011;45010;53.640;10.578;2023-02-03T18:13:09;9.20;;;3.65;;
59239;SDS011;45010;53.640;10.578;2023-02-03T18:16:14;9.13;;;3.85;;
59239;SDS011;45010;53.640;10.578;2023-02-03T18:19:15;9.00;;;3.35;;
59239;SDS011;45010;53.640;10.578;2023-02-03T18:22:16;12.05;;;3.83;;
59239;SDS011;45010;53.640;10.578;2023-02-03T18:25:16;6.68;;;2.75;;
59239;SDS011;45010;53.640;10.578;2023-02-03T18:28:17;9.48;;;3.67;;
59239;SDS011;45010;53.640;10.578;2023-02-03T18:31:18;8.05;;;3.00;;
59239;SDS011;45010;53.640;10.578;2023-02-03T18:34:19;6.93;;;3.00;;
59239;SDS011;45010;53.640;10.578;2023-02-03T18:37:19;10.52;;;3.28;;
59239;SDS011;45010;53.640;10.578;2023-02-03T18:40:20;8.20;;;3.10;;
59239;SDS011;45010;53.640;10.578;2023-02-03T18:43:20;8.50;;;2.90;;
59239;SDS011;45010;53.640;10.578;2023-02-03T18:46:22;23.55;;;4.93;;
59239;SDS011;45010;53.640;10.578;2023-02-03T18:49:24;10.00;;;3.38;;
59239;SDS011;45010;53.640;10.578;2023-02-03T18:52:24;8.48;;;3.50;;
59239;SDS011;45010;53.640;10.578;2023-02-03T18:55:25;6.25;;;3.08;;
59239;SDS011;45010;53.640;10.578;2023-02-03T18:58:25;11.23;;;3.00;;
59239;SDS011;45010;53.640;10.578;2023-02-03T19:01:26;10.07;;;3.38;;
59239;SDS011;45010;53.640;10.578;2023-02-03T19:04:28;8.77;;;3.15;;
59239;SDS011;45010;53.640;10.578;2023-02-03T19:07:28;10.57;;;3.13;;
59239;SDS011;45010;53.640;10.578;2023-02-03T19:10:29;7.85;;;3.25;;
59239;SDS011;45010;53.640;10.578;2023-02-03T19:13:31;7.13;;;2.92;;
59239;SDS011;45010;53.640;10.578;2023-02-03T19:16:31;11.13;;;3.40;;
59239;SDS011;45010;53.640;10.578;2023-02-03T19:19:32;11.38;;;2.78;;
59239;SDS011;45010;53.640;10.578;2023-02-03T19:22:32;8.15;;;2.75;;
59239;SDS011;45010;53.640;10.578;2023-02-03T19:25:34;6.97;;;2.97;;
59239;SDS011;45010;53.640;10.578;2023-02-03T19:28:35;7.68;;;3.13;;
59239;SDS011;45010;53.640;10.578;2023-02-03T19:31:35;5.75;;;3.00;;
59239;SDS011;45010;53.640;10.578;2023-02-03T19:34:36;9.40;;;2.88;;